createdAt,value
2022-09-04T00:00:14.506Z,23.80
2022-09-04T00:03:15.761Z,23.80
2022-09-04T00:05:52.084Z,23.80
2022-09-04T00:08:37.526Z,23.10
2022-09-04T00:11:16.595Z,23.70
2022-09-04T00:13:52.779Z,23.30
2022-09-04T00:16:25.281Z,23.30
2022-09-04T00:19:02.778Z,23.70
2022-09-04T00:21:38.497Z,23.90
2022-09-04T00:24:11.754Z,24.10
2022-09-04T00:26:54.392Z,24.10
2022-09-04T00:29:36.424Z,24.20
2022-09-04T00:32:18.901Z,24.10
2022-09-04T00:35:05.773Z,24.20
2022-09-04T00:37:39.436Z,24.20
2022-09-04T00:40:16.356Z,24.10
2022-09-04T00:43:08.159Z,23.90
2022-09-04T00:46:02.506Z,24.00
2022-09-04T00:48:59.861Z,24.10
2022-09-04T00:51:38.241Z,24.00
2022-09-04T00:54:30.027Z,24.00
2022-09-04T00:57:45.173Z,24.00
2022-09-04T01:00:16.423Z,24.00
2022-09-04T01:03:19.872Z,24.00
2022-09-04T01:06:08.116Z,24.00
2022-09-04T01:09:01.252Z,23.90
2022-09-04T01:11:41.207Z,24.10
2022-09-04T01:14:20.127Z,24.00
2022-09-04T01:16:54.179Z,24.00
2022-09-04T01:19:41.937Z,23.90
2022-09-04T01:22:27.481Z,23.90
2022-09-04T01:25:14.215Z,23.80
2022-09-04T01:27:54.596Z,23.80
2022-09-04T01:30:23.779Z,23.90
2022-09-04T01:33:06.360Z,23.90
2022-09-04T01:35:44.257Z,23.90
2022-09-04T01:38:19.312Z,23.90
2022-09-04T01:40:56.548Z,23.90
2022-09-04T01:43:26.485Z,23.90
2022-09-04T01:46:33.167Z,23.80
2022-09-04T01:49:09.619Z,23.80
2022-09-04T01:51:46.649Z,23.80
2022-09-04T01:54:37.827Z,23.70
2022-09-04T01:57:21.179Z,23.70
2022-09-04T02:00:04.886Z,23.70
2022-09-04T02:02:50.432Z,23.70
2022-09-04T02:05:31.021Z,23.60
2022-09-04T02:08:17.590Z,23.70
2022-09-04T02:10:56.368Z,23.50
2022-09-04T02:13:33.237Z,23.60
2022-09-04T02:16:14.658Z,22.20
2022-09-04T02:19:00.411Z,21.90
2022-09-04T02:21:36.935Z,19.30
2022-09-04T02:24:14.298Z,19.20
2022-09-04T02:26:50.643Z,19.60
2022-09-04T02:29:28.686Z,19.20
2022-09-04T02:32:13.056Z,20.10
2022-09-04T02:34:50.729Z,19.50
2022-09-04T02:37:30.244Z,19.40
2022-09-04T02:40:12.145Z,19.90
2022-09-04T02:42:52.179Z,19.10
2022-09-04T02:45:30.106Z,19.70
2022-09-04T02:48:10.772Z,20.30
2022-09-04T02:50:55.320Z,20.30
2022-09-04T02:53:31.872Z,19.90
2022-09-04T02:56:17.576Z,19.70
2022-09-04T02:59:03.359Z,19.50
2022-09-04T03:01:40.993Z,20.10
2022-09-04T03:04:19.298Z,20.10
2022-09-04T03:06:53.764Z,20.40
2022-09-04T03:09:29.362Z,20.70
2022-09-04T03:12:05.036Z,19.70
2022-09-04T03:14:41.361Z,19.60
2022-09-04T03:17:21.121Z,19.80
2022-09-04T03:20:00.291Z,20.10
2022-09-04T03:22:34.512Z,20.40
2022-09-04T03:25:41.059Z,20.50
2022-09-04T03:28:17.127Z,20.40
2022-09-04T03:30:46.756Z,21.00
2022-09-04T03:33:24.457Z,21.80
2022-09-04T03:36:02.157Z,22.20
2022-09-04T03:38:41.918Z,22.70
2022-09-04T03:41:30.272Z,21.70
2022-09-04T03:44:12.764Z,21.50
2022-09-04T03:46:56.464Z,21.90
2022-09-04T03:49:44.235Z,21.70
2022-09-04T03:52:24.874Z,22.30
2022-09-04T03:55:25.045Z,22.20
2022-09-04T03:58:17.289Z,21.80
2022-09-04T04:00:57.419Z,22.20
2022-09-04T04:03:48.358Z,22.50
2022-09-04T04:06:27.746Z,22.80
2022-09-04T04:09:21.680Z,23.00
2022-09-04T04:12:13.123Z,23.00
2022-09-04T04:15:08.537Z,22.90
2022-09-04T04:17:55.510Z,22.80
2022-09-04T04:20:38.258Z,22.90
2022-09-04T04:23:56.929Z,22.90
2022-09-04T04:26:54.103Z,22.90
2022-09-04T04:29:55.351Z,22.90
2022-09-04T04:32:40.551Z,22.60
2022-09-04T04:35:21.480Z,22.80
2022-09-04T04:38:13.928Z,22.80
2022-09-04T04:41:04.948Z,22.70
2022-09-04T04:43:51.136Z,22.40
2022-09-04T04:46:34.689Z,22.60
2022-09-04T04:49:29.961Z,22.80
2022-09-04T04:52:24.033Z,22.90
2022-09-04T04:55:16.877Z,22.90
2022-09-04T04:58:18.630Z,22.90
2022-09-04T05:00:56.880Z,22.80
2022-09-04T05:03:35.176Z,22.90
2022-09-04T05:06:14.385Z,22.90
2022-09-04T05:08:55.466Z,22.90
2022-09-04T05:11:35.620Z,22.90
2022-09-04T05:14:19.236Z,23.00
2022-09-04T05:16:58.682Z,22.90
2022-09-04T05:19:37.012Z,22.90
2022-09-04T05:22:15.682Z,22.70
2022-09-04T05:24:57.802Z,22.70
2022-09-04T05:27:49.351Z,22.90
2022-09-04T05:30:24.353Z,22.90
2022-09-04T05:33:02.450Z,23.00
2022-09-04T05:35:46.601Z,23.30
2022-09-04T05:38:23.306Z,23.80
2022-09-04T05:41:16.147Z,24.30
2022-09-04T05:44:09.701Z,24.30
2022-09-04T05:46:54.498Z,24.30
2022-09-04T05:49:40.552Z,23.70
2022-09-04T05:52:41.033Z,23.00
2022-09-04T05:55:38.460Z,23.90
2022-09-04T05:58:37.921Z,23.10
2022-09-04T06:01:24.618Z,23.30
2022-09-04T06:04:26.656Z,22.10
2022-09-04T06:07:07.918Z,22.40
2022-09-04T06:09:57.204Z,22.00
2022-09-04T06:12:53.785Z,22.80
2022-09-04T06:15:39.328Z,22.80
